Terminal Aerodrome Forecast
Issued by NWS Grand Forks, ND

Home | Current Version | Previous Version | Graphics & Text | Print | Product List | Glossary On
Versions: 1 2 3 4 5 6 7 8 9 10 11 12 13 14 15 16 17 18 19 20 21
000
FTUS43 KFGF 272334
TAFFAR
TAF
KFAR 272334Z 2800/2824 03005KT P6SM SKC
     FM280100 04006KT P6SM VCSH BKN060
     FM280400 13008KT P6SM BKN120
     FM281400 16014G21KT P6SM BKN120
     FM282200 19017G25KT P6SM VCTS BKN060CB=

USA.gov is the U.S. government's official web portal to all federal, state and local government web resources and services.